createdAt,value
2016-10-05T03:01:08.566Z,18.31
2016-10-05T03:01:34.200Z,18.29
2016-10-05T03:02:00.155Z,18.33
2016-10-05T03:02:25.742Z,18.34
2016-10-05T03:02:51.447Z,18.33
2016-10-05T03:03:17.685Z,18.25
2016-10-05T03:03:43.322Z,18.33
2016-10-05T03:04:09.120Z,18.34
2016-10-05T03:04:35.103Z,18.31
2016-10-05T03:05:01.059Z,18.27
2016-10-05T03:05:26.756Z,18.27
2016-10-05T03:05:52.513Z,18.29
2016-10-05T03:06:18.116Z,18.29
2016-10-05T03:06:43.712Z,18.25
2016-10-05T03:07:09.296Z,18.33
2016-10-05T03:07:34.841Z,18.28
2016-10-05T03:08:00.490Z,18.31
2016-10-05T03:08:26.738Z,18.24
2016-10-05T03:08:52.459Z,18.29
2016-10-05T03:09:18.162Z,18.25
2016-10-05T03:09:43.756Z,18.29
2016-10-05T03:10:09.513Z,18.28
2016-10-05T03:10:35.090Z,18.29
2016-10-05T03:11:00.717Z,18.29
2016-10-05T03:11:26.339Z,18.22
2016-10-05T03:11:51.902Z,18.31
2016-10-05T03:12:17.594Z,18.25
2016-10-05T03:12:43.227Z,18.24
2016-10-05T03:13:08.812Z,18.27
2016-10-05T03:13:34.450Z,18.27
2016-10-05T03:14:00.009Z,18.19
2016-10-05T03:14:25.522Z,18.19
2016-10-05T03:14:51.107Z,18.21
2016-10-05T03:15:49.351Z,18.25
2016-10-05T03:16:14.907Z,18.19
2016-10-05T03:16:40.690Z,18.28
2016-10-05T03:17:06.298Z,18.15
2016-10-05T03:17:31.898Z,18.17
2016-10-05T03:17:57.565Z,18.19
2016-10-05T03:18:23.149Z,18.13
2016-10-05T03:18:48.819Z,18.19
2016-10-05T03:19:14.496Z,18.22
2016-10-05T03:19:40.064Z,18.19
2016-10-05T03:20:05.740Z,18.18
2016-10-05T03:20:31.407Z,18.13
2016-10-05T03:20:56.964Z,18.18
2016-10-05T03:21:22.613Z,18.17
2016-10-05T03:21:48.178Z,18.24
2016-10-05T03:22:13.769Z,18.21
2016-10-05T03:22:39.437Z,18.15
2016-10-05T03:23:04.977Z,18.15
2016-10-05T03:23:30.584Z,18.15
2016-10-05T03:23:56.155Z,18.21
2016-10-05T03:24:21.768Z,18.18
2016-10-05T03:24:47.377Z,18.15
2016-10-05T03:25:12.916Z,18.15
2016-10-05T03:25:38.506Z,18.09
2016-10-05T03:26:04.147Z,18.18
2016-10-05T03:26:29.840Z,18.13
2016-10-05T03:26:55.449Z,18.18
2016-10-05T03:27:21.065Z,18.03
2016-10-05T03:27:46.926Z,18.12
2016-10-05T03:28:12.520Z,18.13
2016-10-05T03:28:38.106Z,18.17
2016-10-05T03:29:03.707Z,18.07
2016-10-05T03:29:29.322Z,18.13
2016-10-05T03:29:54.872Z,18.15
2016-10-05T03:30:20.442Z,18.03
2016-10-05T03:30:46.104Z,18.03
2016-10-05T03:31:11.684Z,18.04
2016-10-05T03:31:37.231Z,18.06
2016-10-05T03:32:02.909Z,18.02
2016-10-05T03:32:28.509Z,18.02
2016-10-05T03:32:54.087Z,18.02
2016-10-05T03:33:19.655Z,18.06
2016-10-05T03:33:45.276Z,18.06
2016-10-05T03:34:10.848Z,18
2016-10-05T03:34:36.457Z,18.03
2016-10-05T03:35:02.109Z,17.99
2016-10-05T03:35:27.637Z,18.07
2016-10-05T03:35:53.218Z,18.06
2016-10-05T03:36:18.872Z,18.06
2016-10-05T03:37:10.858Z,18.03
2016-10-05T03:37:36.425Z,18.1
2016-10-05T03:38:02.061Z,18.03
2016-10-05T03:38:27.678Z,18
2016-10-05T03:38:53.242Z,17.97
2016-10-05T03:39:19.012Z,18.02
2016-10-05T03:39:44.677Z,18.02
2016-10-05T03:40:10.753Z,18.03
2016-10-05T03:40:36.320Z,18
2016-10-05T03:41:01.967Z,18.03
2016-10-05T03:41:28.285Z,17.99
2016-10-05T03:41:53.845Z,17.99
2016-10-05T03:42:19.987Z,17.97
2016-10-05T03:42:45.557Z,18.03
2016-10-05T03:43:11.802Z,17.99
2016-10-05T03:43:37.362Z,18
2016-10-05T03:44:02.935Z,17.95
2016-10-05T03:44:29.078Z,17.95
2016-10-05T03:44:54.639Z,18
2016-10-05T03:45:20.947Z,18.02
2016-10-05T03:45:46.496Z,18.03
2016-10-05T03:46:12.136Z,18.02
2016-10-05T03:46:38.374Z,18.04
2016-10-05T03:47:03.996Z,17.95
2016-10-05T03:47:30.037Z,18
2016-10-05T03:47:55.603Z,18.06
2016-10-05T03:48:21.822Z,17.89
2016-10-05T03:48:47.413Z,17.92
2016-10-05T03:49:13.054Z,17.99
2016-10-05T03:49:39.335Z,17.94
2016-10-05T03:50:04.966Z,17.94
2016-10-05T03:50:31.012Z,17.95
2016-10-05T03:50:56.548Z,17.92
2016-10-05T03:51:22.112Z,17.95
2016-10-05T03:51:48.368Z,17.95
2016-10-05T03:52:14.047Z,17.92
2016-10-05T03:52:40.116Z,17.91
2016-10-05T03:53:05.683Z,17.94
2016-10-05T03:53:31.877Z,17.95
2016-10-05T03:53:57.470Z,17.88
2016-10-05T03:54:23.118Z,17.95
2016-10-05T03:54:49.268Z,17.92
2016-10-05T03:55:14.828Z,17.95
2016-10-05T03:55:41.078Z,17.97
2016-10-05T03:56:06.668Z,17.97
2016-10-05T03:56:32.220Z,17.99
2016-10-05T03:56:58.502Z,17.99
2016-10-05T03:57:24.163Z,17.99
2016-10-05T03:57:50.243Z,17.95
2016-10-05T03:58:15.805Z,17.95
2016-10-05T03:58:42.018Z,17.99
2016-10-05T03:59:07.585Z,17.94
2016-10-05T03:59:34.204Z,17.97
2016-10-05T03:59:59.800Z,17.97
2016-10-05T04:00:25.384Z,17.95
2016-10-05T04:00:51.211Z,17.89
2016-10-05T04:01:16.767Z,17.92
2016-10-05T04:01:42.330Z,17.97
2016-10-05T04:02:08.508Z,17.92
2016-10-05T04:02:34.113Z,17.94
2016-10-05T04:03:00.225Z,17.94
2016-10-05T04:03:25.778Z,17.94
2016-10-05T04:03:52.139Z,17.92
2016-10-05T04:04:17.893Z,17.97
2016-10-05T04:04:43.470Z,17.97
2016-10-05T04:05:09.454Z,17.97
2016-10-05T04:05:35.065Z,17.99
2016-10-05T04:06:01.316Z,17.94
2016-10-05T04:06:26.884Z,17.97
2016-10-05T04:06:52.509Z,17.89
2016-10-05T04:07:18.656Z,17.94
2016-10-05T04:07:44.234Z,17.91
2016-10-05T04:08:10.466Z,17.94
2016-10-05T04:08:36.104Z,17.97
2016-10-05T04:09:02.240Z,17.91
2016-10-05T04:09:27.825Z,17.97
2016-10-05T04:09:53.470Z,17.87
2016-10-05T04:10:19.560Z,17.91
2016-10-05T04:10:45.179Z,17.97
2016-10-05T04:11:11.346Z,17.87
2016-10-05T04:11:36.899Z,17.97
2016-10-05T04:12:02.511Z,17.88
2016-10-05T04:12:28.707Z,17.95
2016-10-05T04:12:54.388Z,17.95
2016-10-05T04:13:20.494Z,17.88
2016-10-05T04:13:46.071Z,17.89
2016-10-05T04:14:12.281Z,17.99
2016-10-05T04:14:37.862Z,17.91
2016-10-05T04:15:03.555Z,18.04
2016-10-05T04:15:29.597Z,17.85
2016-10-05T04:15:55.295Z,17.97
2016-10-05T04:16:21.364Z,17.97
2016-10-05T04:16:46.930Z,17.87
2016-10-05T04:17:12.604Z,17.92
2016-10-05T04:17:38.748Z,17.88
2016-10-05T04:18:04.417Z,17.87
2016-10-05T04:18:30.496Z,17.92
2016-10-05T04:18:56.054Z,17.88
2016-10-05T04:19:22.321Z,17.94
2016-10-05T04:19:47.906Z,17.84
2016-10-05T04:20:13.549Z,17.91
2016-10-05T04:20:39.746Z,17.88
2016-10-05T04:21:05.419Z,17.89
2016-10-05T04:21:31.523Z,17.95
2016-10-05T04:21:57.094Z,17.87
2016-10-05T04:22:22.851Z,17.87
2016-10-05T04:22:48.956Z,17.89
2016-10-05T04:23:14.587Z,17.89
2016-10-05T04:23:40.688Z,17.94
2016-10-05T04:24:06.251Z,17.91
2016-10-05T04:24:32.490Z,17.87
2016-10-05T04:24:58.176Z,17.89
2016-10-05T04:25:23.865Z,17.91
2016-10-05T04:25:49.846Z,17.85
2016-10-05T04:26:15.419Z,17.91
2016-10-05T04:26:41.669Z,17.85
2016-10-05T04:27:08.016Z,17.81
2016-10-05T04:27:33.692Z,17.89
2016-10-05T04:27:59.264Z,17.88
2016-10-05T04:28:24.886Z,17.88
2016-10-05T04:28:50.779Z,17.81
2016-10-05T04:29:16.342Z,17.85
2016-10-05T04:29:42.568Z,17.85
2016-10-05T04:30:08.237Z,17.89
2016-10-05T04:30:33.888Z,17.81
2016-10-05T04:30:59.891Z,17.84
2016-10-05T04:31:25.457Z,17.89
2016-10-05T04:31:51.789Z,17.82
2016-10-05T04:32:17.364Z,17.85
2016-10-05T04:32:42.982Z,17.79
2016-10-05T04:33:09.115Z,17.82
2016-10-05T04:33:34.803Z,17.84
2016-10-05T04:34:00.852Z,17.82
2016-10-05T04:34:26.415Z,17.79
2016-10-05T04:34:52.647Z,17.85
2016-10-05T04:35:18.206Z,17.87
2016-10-05T04:35:43.927Z,17.82
2016-10-05T04:36:10.013Z,17.84
2016-10-05T04:36:35.591Z,17.82
2016-10-05T04:37:01.834Z,17.87
2016-10-05T04:37:27.462Z,17.84
2016-10-05T04:37:53.065Z,17.81
2016-10-05T04:38:19.154Z,17.81
2016-10-05T04:38:44.754Z,17.84
2016-10-05T04:39:10.999Z,17.82
2016-10-05T04:39:36.603Z,17.74
2016-10-05T04:40:02.729Z,17.84
2016-10-05T04:40:28.308Z,17.81
2016-10-05T04:40:53.926Z,17.87
2016-10-05T04:41:20.130Z,17.73
2016-10-05T04:41:45.703Z,17.78
2016-10-05T04:42:11.958Z,17.87
2016-10-05T04:42:37.514Z,17.82
2016-10-05T04:43:03.126Z,17.74
2016-10-05T04:43:29.269Z,17.81
2016-10-05T04:43:54.877Z,17.73
2016-10-05T04:44:21.035Z,17.79
2016-10-05T04:44:46.594Z,17.71
2016-10-05T04:45:12.862Z,17.81
2016-10-05T04:45:38.437Z,17.87
2016-10-05T04:46:04.080Z,17.79
2016-10-05T04:46:30.162Z,17.87
2016-10-05T04:46:55.715Z,17.84
2016-10-05T04:47:22.006Z,17.87
2016-10-05T04:47:47.581Z,17.82
2016-10-05T04:48:13.158Z,17.85
2016-10-05T04:48:39.387Z,17.84
2016-10-05T04:49:05.000Z,17.91
2016-10-05T04:49:31.108Z,17.91
2016-10-05T04:49:56.678Z,17.89
2016-10-05T04:50:22.931Z,17.88
2016-10-05T04:50:48.496Z,17.95
2016-10-05T04:51:14.125Z,17.92
2016-10-05T04:51:40.271Z,17.88
2016-10-05T04:52:05.935Z,17.97
2016-10-05T04:52:32.055Z,17.88
2016-10-05T04:52:57.626Z,17.88
2016-10-05T04:53:23.366Z,17.92
2016-10-05T04:53:49.517Z,17.91
2016-10-05T04:54:15.175Z,17.94
2016-10-05T04:54:41.210Z,17.89
2016-10-05T04:55:06.780Z,17.95
2016-10-05T04:55:33.053Z,17.97
2016-10-05T04:55:58.623Z,17.97
2016-10-05T04:56:24.255Z,17.94
2016-10-05T04:56:50.383Z,17.92
2016-10-05T04:57:16.053Z,17.94
2016-10-05T04:57:42.173Z,17.95
2016-10-05T04:58:07.822Z,17.95
2016-10-05T04:58:33.442Z,17.99
2016-10-05T04:58:59.511Z,17.94
2016-10-05T04:59:25.113Z,17.94
2016-10-05T04:59:51.339Z,17.95
2016-10-05T05:00:16.904Z,17.91
2016-10-05T05:00:43.081Z,18
2016-10-05T05:01:08.642Z,17.94
2016-10-05T05:01:34.271Z,17.99
2016-10-05T05:02:00.431Z,17.97
2016-10-05T05:02:25.982Z,17.99
2016-10-05T05:02:52.214Z,18
2016-10-05T05:03:17.918Z,17.97
2016-10-05T05:03:43.491Z,18.03
2016-10-05T05:04:09.623Z,18.03
2016-10-05T05:04:35.304Z,18.03
2016-10-05T05:05:01.405Z,17.99
2016-10-05T05:05:26.979Z,17.99
2016-10-05T05:05:53.210Z,17.95
2016-10-05T05:06:18.810Z,18.04
2016-10-05T05:06:44.410Z,18.06
2016-10-05T05:07:10.565Z,18
2016-10-05T05:07:36.239Z,18.03
2016-10-05T05:08:02.468Z,18.02
2016-10-05T05:08:28.027Z,17.99
2016-10-05T05:08:53.775Z,18.03
2016-10-05T05:09:19.721Z,18
2016-10-05T05:09:45.379Z,18.09
2016-10-05T05:10:11.529Z,18.06
2016-10-05T05:10:37.118Z,18.04
2016-10-05T05:11:03.312Z,17.97
2016-10-05T05:11:29.459Z,18.03
2016-10-05T05:11:54.522Z,18.02
2016-10-05T05:12:20.592Z,18.02
2016-10-05T05:12:46.148Z,18
2016-10-05T05:13:12.446Z,18.04
2016-10-05T05:13:37.999Z,18.03
2016-10-05T05:14:03.598Z,17.99
2016-10-05T05:14:29.899Z,18.02
2016-10-05T05:14:55.458Z,18.03
2016-10-05T05:15:21.651Z,18.06
2016-10-05T05:15:47.241Z,18.02
2016-10-05T05:16:13.400Z,18
2016-10-05T05:16:39.185Z,18.03
2016-10-05T05:17:04.836Z,18.06
2016-10-05T05:17:30.733Z,18.09
2016-10-05T05:17:56.406Z,18.03
2016-10-05T05:18:22.613Z,18.12
2016-10-05T05:18:48.197Z,18.07
2016-10-05T05:19:13.780Z,18.02
2016-10-05T05:19:39.947Z,18.12
2016-10-05T05:20:05.632Z,18.17
2016-10-05T05:20:31.620Z,18.13
2016-10-05T05:20:57.229Z,18.17
2016-10-05T05:21:23.462Z,18.02
2016-10-05T05:21:49.013Z,18.13
2016-10-05T05:22:14.721Z,18.13
2016-10-05T05:22:40.843Z,18.18
2016-10-05T05:23:06.394Z,18.13
2016-10-05T05:23:32.672Z,18.21
2016-10-05T05:23:58.220Z,18.13
2016-10-05T05:24:23.934Z,18.15
2016-10-05T05:24:50.001Z,18.18
2016-10-05T05:25:15.642Z,18.1
2016-10-05T05:25:41.892Z,18.17
2016-10-05T05:26:07.570Z,18.19
2016-10-05T05:26:33.601Z,18.15
2016-10-05T05:26:59.209Z,18.21
2016-10-05T05:27:24.862Z,18.21
2016-10-05T05:27:50.896Z,18.13
2016-10-05T05:28:16.579Z,18.18
2016-10-05T05:28:42.784Z,18.15
2016-10-05T05:29:08.336Z,18.18
2016-10-05T05:29:33.903Z,18.15
2016-10-05T05:30:00.111Z,18.19
2016-10-05T05:30:25.660Z,18.15
2016-10-05T05:30:51.862Z,18.21
2016-10-05T05:31:17.442Z,18.12
2016-10-05T05:31:43.623Z,18.12
2016-10-05T05:32:09.221Z,18.18
2016-10-05T05:32:34.799Z,18.12
2016-10-05T05:33:01.022Z,18.1
2016-10-05T05:33:26.581Z,18.13
2016-10-05T05:33:52.822Z,18.21
2016-10-05T05:34:18.387Z,18.17
2016-10-05T05:34:43.942Z,18.21
2016-10-05T05:35:10.172Z,18.21
2016-10-05T05:35:35.895Z,18.12
2016-10-05T05:36:01.997Z,18.17
2016-10-05T05:36:27.576Z,18.15
2016-10-05T05:36:53.776Z,18.19
2016-10-05T05:37:19.330Z,18.21
2016-10-05T05:37:44.916Z,18.18
2016-10-05T05:38:11.153Z,18.18
2016-10-05T05:38:36.790Z,18.21
2016-10-05T05:39:02.953Z,18.15
2016-10-05T05:39:28.507Z,18.22
2016-10-05T05:39:54.088Z,18.17
2016-10-05T05:40:20.316Z,18.21
2016-10-05T05:40:45.929Z,18.25
2016-10-05T05:41:12.109Z,18.22
2016-10-05T05:41:37.729Z,18.17
2016-10-05T05:42:03.958Z,18.18
2016-10-05T05:42:29.732Z,18.19
2016-10-05T05:42:55.369Z,18.17
2016-10-05T05:43:21.311Z,18.22
2016-10-05T05:43:46.898Z,18.21
2016-10-05T05:44:12.963Z,18.15
2016-10-05T05:44:38.619Z,18.22
2016-10-05T05:45:04.262Z,18.21
2016-10-05T05:45:30.419Z,18.21
2016-10-05T05:45:56.111Z,18.27
2016-10-05T05:46:22.171Z,18.24
2016-10-05T05:46:47.763Z,18.19
2016-10-05T05:47:13.928Z,18.13
2016-10-05T05:47:39.499Z,18.22
2016-10-05T05:48:05.052Z,18.21
2016-10-05T05:48:31.433Z,18.21
2016-10-05T05:48:57.110Z,18.18
2016-10-05T05:49:23.113Z,18.22
2016-10-05T05:49:48.710Z,18.18
2016-10-05T05:50:14.365Z,18.17
2016-10-05T05:50:40.482Z,18.19
2016-10-05T05:51:06.112Z,18.21
2016-10-05T05:51:32.262Z,18.21
2016-10-05T05:51:57.828Z,18.24
2016-10-05T05:52:24.051Z,18.24
2016-10-05T05:52:49.723Z,18.24
2016-10-05T05:53:15.440Z,18.18
2016-10-05T05:53:41.374Z,18.18
2016-10-05T05:54:06.986Z,18.18
2016-10-05T05:54:33.148Z,18.19
2016-10-05T05:54:58.715Z,18.17
2016-10-05T05:55:24.361Z,18.24
2016-10-05T05:55:50.631Z,18.13
2016-10-05T05:56:18.962Z,18.13
2016-10-05T05:56:45.242Z,18.19
2016-10-05T05:57:10.910Z,18.21
2016-10-05T05:57:36.462Z,18.18
2016-10-05T05:58:02.125Z,18.15
2016-10-05T05:58:27.666Z,18.18
2016-10-05T05:58:53.260Z,18.22
2016-10-05T05:59:18.830Z,18.19
2016-10-05T05:59:44.535Z,18.19
2016-10-05T06:00:10.199Z,18.28
2016-10-05T06:00:35.773Z,18.25
2016-10-05T06:01:44.193Z,18.19
2016-10-05T06:02:09.763Z,18.25
2016-10-05T06:02:35.357Z,18.18
2016-10-05T06:03:01.018Z,18.28
2016-10-05T06:03:26.583Z,18.28
2016-10-05T06:03:52.182Z,18.27
2016-10-05T06:04:17.758Z,18.27
2016-10-05T06:04:43.392Z,18.27
2016-10-05T06:05:08.955Z,18.27
2016-10-05T06:05:34.565Z,18.27
2016-10-05T06:06:00.220Z,18.21
2016-10-05T06:06:25.792Z,18.27
2016-10-05T06:07:29.474Z,18.19
2016-10-05T06:07:55.050Z,18.27
2016-10-05T06:08:20.632Z,18.19
2016-10-05T06:08:46.292Z,18.27
2016-10-05T06:09:11.854Z,18.28
2016-10-05T06:10:15.457Z,18.24
2016-10-05T06:10:41.013Z,18.24
2016-10-05T06:11:06.682Z,18.25
2016-10-05T06:11:32.357Z,18.19
2016-10-05T06:11:57.913Z,18.22
2016-10-05T06:12:23.555Z,18.25
2016-10-05T06:12:49.170Z,18.31
2016-10-05T06:13:14.760Z,18.31
2016-10-05T06:13:40.316Z,18.28
2016-10-05T06:14:05.903Z,18.21
2016-10-05T06:14:31.558Z,18.28
2016-10-05T06:14:57.247Z,18.33
2016-10-05T06:15:22.763Z,18.24
2016-10-05T06:15:48.433Z,18.28
2016-10-05T06:16:14.104Z,18.21
2016-10-05T06:16:39.742Z,18.33
2016-10-05T06:17:05.424Z,18.28
2016-10-05T06:17:30.983Z,18.28
2016-10-05T06:17:56.692Z,18.31
2016-10-05T06:18:22.362Z,18.25
2016-10-05T06:18:47.941Z,18.33
2016-10-05T06:19:14.154Z,18.29
2016-10-05T06:19:39.892Z,18.28
2016-10-05T06:20:05.562Z,18.29
2016-10-05T06:20:31.140Z,18.28
2016-10-05T06:20:56.726Z,18.28
2016-10-05T06:21:22.340Z,18.31
2016-10-05T06:21:47.845Z,18.34
2016-10-05T06:22:13.502Z,18.31
2016-10-05T06:22:39.079Z,18.28
2016-10-05T06:23:04.726Z,18.27
2016-10-05T06:23:30.391Z,18.29
2016-10-05T06:23:55.912Z,18.31
2016-10-05T06:24:22.060Z,18.29
2016-10-05T06:24:47.615Z,18.24
2016-10-05T06:25:13.155Z,18.34
2016-10-05T06:25:38.749Z,18.37
2016-10-05T06:26:04.293Z,18.33
2016-10-05T06:26:29.908Z,18.31
2016-10-05T06:26:55.476Z,18.37
2016-10-05T06:27:21.018Z,18.34
2016-10-05T06:27:46.651Z,18.33
2016-10-05T06:28:12.192Z,18.39
2016-10-05T06:28:37.806Z,18.29
2016-10-05T06:29:03.362Z,18.31
2016-10-05T06:29:29.013Z,18.4
2016-10-05T06:29:54.625Z,18.33
2016-10-05T06:30:20.163Z,18.34
2016-10-05T06:31:23.553Z,18.36
2016-10-05T06:31:49.207Z,18.36
2016-10-05T06:32:52.602Z,18.37
2016-10-05T06:33:18.174Z,18.34
2016-10-05T06:33:43.759Z,18.31
2016-10-05T06:34:09.381Z,18.33
2016-10-05T06:34:35.054Z,18.42
2016-10-05T06:35:00.683Z,18.31
2016-10-05T06:35:26.243Z,18.34
2016-10-05T06:35:51.866Z,18.34
2016-10-05T06:36:17.419Z,18.36
2016-10-05T06:36:43.104Z,18.36
2016-10-05T06:37:08.739Z,18.33
2016-10-05T06:37:34.315Z,18.36
2016-10-05T06:37:59.976Z,18.33
2016-10-05T06:38:25.601Z,18.37
2016-10-05T06:38:51.192Z,18.34
2016-10-05T06:39:16.934Z,18.39
2016-10-05T06:39:42.502Z,18.31
2016-10-05T06:40:08.258Z,18.34
2016-10-05T06:41:17.424Z,18.31
2016-10-05T06:41:43.133Z,18.34
2016-10-05T06:42:08.731Z,18.43
2016-10-05T06:42:34.292Z,18.43
2016-10-05T06:43:42.726Z,18.44
2016-10-05T06:44:30.568Z,18.4
2016-10-05T06:44:56.222Z,18.42
2016-10-05T06:45:21.866Z,18.39
2016-10-05T06:45:47.434Z,18.46
2016-10-05T06:46:50.808Z,18.39
2016-10-05T06:47:16.408Z,18.4
2016-10-05T06:47:42.041Z,18.49
2016-10-05T06:48:07.684Z,18.54
2016-10-05T06:48:33.232Z,18.43
2016-10-05T06:48:58.875Z,18.4
2016-10-05T06:49:24.442Z,18.4
2016-10-05T06:49:50.088Z,18.44
2016-10-05T06:50:15.672Z,18.39
2016-10-05T06:50:41.322Z,18.39
2016-10-05T06:51:06.940Z,18.42
2016-10-05T06:51:32.487Z,18.43
2016-10-05T06:51:58.081Z,18.4
2016-10-05T06:52:23.634Z,18.49
2016-10-05T06:52:49.186Z,18.4
2016-10-05T06:53:14.783Z,18.39
2016-10-05T06:53:40.341Z,18.44
2016-10-05T06:54:05.996Z,18.42
2016-10-05T06:54:31.539Z,18.47
2016-10-05T06:54:57.133Z,18.54
2016-10-05T06:55:22.901Z,18.49
2016-10-05T06:55:48.478Z,18.49
2016-10-05T06:56:14.117Z,18.44
2016-10-05T06:56:39.698Z,18.49
2016-10-05T06:57:05.243Z,18.44
2016-10-05T06:57:30.814Z,18.49
2016-10-05T06:57:56.404Z,18.42
2016-10-05T06:58:22.072Z,18.43
2016-10-05T06:58:47.641Z,18.46
2016-10-05T06:59:13.285Z,18.43
2016-10-05T06:59:38.977Z,18.49
2016-10-05T07:00:04.554Z,18.46
2016-10-05T07:00:30.245Z,18.43
2016-10-05T07:00:55.828Z,18.44
2016-10-05T07:01:21.463Z,18.43
2016-10-05T07:01:47.066Z,18.46
2016-10-05T07:02:12.615Z,18.49
2016-10-05T07:02:38.192Z,18.49
2016-10-05T07:03:03.761Z,18.46
2016-10-05T07:03:29.341Z,18.54
2016-10-05T07:03:55.003Z,18.46
2016-10-05T07:04:20.503Z,18.49
2016-10-05T07:04:46.173Z,18.5
2016-10-05T07:05:11.784Z,18.47
2016-10-05T07:05:37.409Z,18.49
2016-10-05T07:06:03.063Z,18.43
2016-10-05T07:06:28.570Z,18.46
2016-10-05T07:06:54.255Z,18.52
2016-10-05T07:07:19.843Z,18.57
2016-10-05T07:07:45.481Z,18.52
2016-10-05T07:08:11.072Z,18.52
2016-10-05T07:08:36.641Z,18.46
2016-10-05T07:09:02.340Z,18.44
2016-10-05T07:09:27.884Z,18.52
2016-10-05T07:09:53.463Z,18.47
2016-10-05T07:10:19.096Z,18.47
2016-10-05T07:10:44.671Z,18.47
2016-10-05T07:11:10.307Z,18.49
2016-10-05T07:11:36.007Z,18.49
2016-10-05T07:12:01.633Z,18.47
2016-10-05T07:12:27.291Z,18.54
2016-10-05T07:13:15.416Z,18.49
2016-10-05T07:14:08.587Z,18.54
2016-10-05T07:14:34.260Z,18.54
2016-10-05T07:14:59.856Z,18.46
2016-10-05T07:15:25.449Z,18.55
2016-10-05T07:15:51.008Z,18.55
2016-10-05T07:16:16.579Z,18.52
2016-10-05T07:16:42.171Z,18.57
2016-10-05T07:17:07.734Z,18.54
2016-10-05T07:17:33.446Z,18.5
2016-10-05T07:17:58.991Z,18.55
2016-10-05T07:18:24.594Z,18.59
2016-10-05T07:18:50.227Z,18.57
2016-10-05T07:19:15.737Z,18.59
2016-10-05T07:19:41.383Z,18.44
2016-10-05T07:20:06.974Z,18.57
2016-10-05T07:20:32.615Z,18.54
2016-10-05T07:20:58.319Z,18.57
2016-10-05T07:21:24.552Z,18.58
2016-10-05T07:21:50.097Z,18.58
2016-10-05T07:22:15.659Z,18.62
2016-10-05T07:22:41.314Z,18.58
2016-10-05T07:23:06.822Z,18.54
2016-10-05T07:23:32.485Z,18.58
2016-10-05T07:23:58.064Z,18.57
2016-10-05T07:24:23.704Z,18.58
2016-10-05T07:24:49.315Z,18.61
2016-10-05T07:25:14.995Z,18.58
2016-10-05T07:25:40.568Z,18.58
2016-10-05T07:26:06.167Z,18.64
2016-10-05T07:26:31.896Z,18.55
2016-10-05T07:26:57.563Z,18.61
2016-10-05T07:27:23.189Z,18.61
2016-10-05T07:27:48.785Z,18.61
2016-10-05T07:28:14.477Z,18.67
2016-10-05T07:28:40.078Z,18.59
2016-10-05T07:29:05.673Z,18.64
2016-10-05T07:29:31.242Z,18.59
2016-10-05T07:29:56.914Z,18.57
2016-10-05T07:30:22.613Z,18.68
2016-10-05T07:30:48.315Z,18.58
2016-10-05T07:31:13.922Z,18.67
2016-10-05T07:31:39.617Z,18.61
2016-10-05T07:32:05.194Z,18.65
2016-10-05T07:32:30.927Z,18.61
2016-10-05T07:32:56.515Z,18.58
2016-10-05T07:33:22.106Z,18.72
2016-10-05T07:33:47.741Z,18.59
2016-10-05T07:34:13.318Z,18.57
2016-10-05T07:34:38.886Z,18.67
2016-10-05T07:35:04.503Z,18.61
2016-10-05T07:35:30.149Z,18.58
2016-10-05T07:36:38.578Z,18.64
2016-10-05T07:37:04.134Z,18.62
2016-10-05T07:37:29.764Z,18.62
2016-10-05T07:37:55.315Z,18.58
2016-10-05T07:38:21.097Z,18.68
2016-10-05T07:38:46.727Z,18.67
2016-10-05T07:39:12.303Z,18.62
2016-10-05T07:39:37.955Z,18.59
2016-10-05T07:40:03.519Z,18.59
2016-10-05T07:40:29.121Z,18.57
2016-10-05T07:40:54.705Z,18.73
2016-10-05T07:41:42.567Z,18.65
2016-10-05T07:42:30.393Z,18.61
2016-10-05T07:42:56.020Z,18.65
2016-10-05T07:43:21.671Z,18.62
2016-10-05T07:43:47.234Z,18.67
2016-10-05T07:44:12.859Z,18.68
2016-10-05T07:44:38.416Z,18.68
2016-10-05T07:45:04.104Z,18.64
2016-10-05T07:45:29.757Z,18.67
2016-10-05T07:45:55.343Z,18.72
2016-10-05T07:46:20.942Z,18.68
2016-10-05T07:46:46.534Z,18.7
2016-10-05T07:47:12.102Z,18.72
2016-10-05T07:47:37.727Z,18.65
2016-10-05T07:48:03.282Z,18.68
2016-10-05T07:48:28.904Z,18.72
2016-10-05T07:48:54.463Z,18.65
2016-10-05T07:49:20.238Z,18.73
2016-10-05T07:49:45.855Z,18.62
2016-10-05T07:50:11.509Z,18.7
2016-10-05T07:50:37.134Z,18.73
2016-10-05T07:51:02.704Z,18.72
2016-10-05T07:51:28.427Z,18.74
2016-10-05T07:51:54.068Z,18.7
2016-10-05T07:52:19.616Z,18.72
2016-10-05T07:52:45.186Z,18.76
2016-10-05T07:53:10.832Z,18.67
2016-10-05T07:53:36.360Z,18.74
2016-10-05T07:54:02.043Z,18.77
2016-10-05T07:54:27.616Z,18.77
2016-10-05T07:54:53.242Z,18.79
2016-10-05T07:55:19.609Z,18.7
2016-10-05T07:55:44.431Z,18.72
2016-10-05T07:56:10.002Z,18.79
2016-10-05T07:56:35.566Z,18.76
2016-10-05T07:57:01.229Z,18.79
2016-10-05T07:57:26.843Z,18.76
2016-10-05T07:57:52.481Z,18.8
2016-10-05T07:58:18.092Z,18.79
2016-10-05T07:58:43.646Z,18.74
2016-10-05T07:59:09.282Z,18.76
2016-10-05T07:59:34.852Z,18.76
2016-10-05T08:00:00.402Z,18.77
2016-10-05T08:00:26.009Z,18.77
2016-10-05T08:00:51.565Z,18.77
2016-10-05T08:01:17.256Z,18.84
2016-10-05T08:01:42.801Z,18.8
2016-10-05T08:02:08.395Z,18.86
2016-10-05T08:02:34.691Z,18.87
2016-10-05T08:03:00.387Z,18.8
2016-10-05T08:03:25.967Z,18.84
2016-10-05T08:04:19.029Z,18.76
2016-10-05T08:05:27.283Z,18.9
2016-10-05T08:05:52.857Z,18.86
2016-10-05T08:06:18.437Z,18.86
2016-10-05T08:06:44.056Z,18.79
2016-10-05T08:07:09.650Z,18.79
2016-10-05T08:07:35.268Z,18.82
2016-10-05T08:08:00.842Z,18.86
2016-10-05T08:08:26.433Z,18.83
2016-10-05T08:08:52.076Z,18.83
2016-10-05T08:09:17.589Z,18.82
2016-10-05T08:09:43.217Z,18.84
2016-10-05T08:10:08.769Z,18.84
2016-10-05T08:10:34.416Z,18.84
2016-10-05T08:10:59.983Z,18.84
2016-10-05T08:11:25.606Z,18.84
2016-10-05T08:11:51.289Z,18.86
2016-10-05T08:12:16.990Z,18.86
2016-10-05T08:13:15.225Z,18.87
2016-10-05T08:13:40.797Z,18.9
2016-10-05T08:14:06.425Z,18.87
2016-10-05T08:14:31.987Z,18.84
2016-10-05T08:14:57.557Z,18.9
2016-10-05T08:15:23.389Z,18.94
2016-10-05T08:15:49.225Z,18.83
2016-10-05T08:16:14.770Z,18.86
2016-10-05T08:16:40.325Z,18.87
2016-10-05T08:17:05.878Z,18.97
2016-10-05T08:17:31.445Z,18.98
2016-10-05T08:17:57.021Z,18.9
2016-10-05T08:18:22.577Z,18.92
2016-10-05T08:18:48.121Z,18.9
2016-10-05T08:19:13.702Z,18.94
2016-10-05T08:19:39.465Z,18.86
2016-10-05T08:20:05.020Z,18.91
2016-10-05T08:20:30.592Z,18.9
2016-10-05T08:20:56.141Z,18.98
2016-10-05T08:21:21.706Z,18.94
2016-10-05T08:21:47.394Z,18.86
2016-10-05T08:22:12.974Z,18.9
2016-10-05T08:22:38.701Z,18.9
2016-10-05T08:23:04.333Z,18.92
2016-10-05T08:23:29.893Z,18.99
2016-10-05T08:23:55.616Z,18.95
2016-10-05T08:24:21.191Z,18.95
2016-10-05T08:24:46.815Z,18.98
2016-10-05T08:25:12.398Z,18.99
2016-10-05T08:25:38.005Z,18.97
2016-10-05T08:26:03.582Z,19.01
2016-10-05T08:26:29.126Z,18.94
2016-10-05T08:26:54.686Z,18.99
2016-10-05T08:27:20.209Z,18.98
2016-10-05T08:27:45.833Z,18.91
2016-10-05T08:28:11.441Z,19.06
2016-10-05T08:28:37.013Z,19.02
2016-10-05T08:29:02.673Z,18.98
2016-10-05T08:29:28.242Z,18.94
2016-10-05T08:29:53.986Z,19.05
2016-10-05T08:30:19.647Z,19.01
2016-10-05T08:30:45.213Z,19.05
2016-10-05T08:31:10.831Z,19.01
2016-10-05T08:31:36.484Z,19.08
2016-10-05T08:32:02.051Z,19.06
2016-10-05T08:32:27.708Z,19.06
2016-10-05T08:32:53.273Z,19.02
2016-10-05T08:33:18.824Z,19.01
2016-10-05T08:33:44.410Z,19.05
2016-10-05T08:34:10.055Z,19.06
2016-10-05T08:34:35.839Z,19.05
2016-10-05T08:35:01.539Z,19.1
2016-10-05T08:35:27.112Z,19.08
2016-10-05T08:35:52.806Z,19.05
2016-10-05T08:36:18.387Z,18.98
2016-10-05T08:36:44.051Z,19.06
2016-10-05T08:37:09.693Z,19.1
2016-10-05T08:37:35.278Z,19.1
2016-10-05T08:38:00.909Z,19.1
2016-10-05T08:38:26.559Z,19.1
2016-10-05T08:38:52.149Z,19.08
2016-10-05T08:39:17.748Z,19.1
2016-10-05T08:39:43.313Z,19.13
2016-10-05T08:40:08.974Z,19.14
2016-10-05T08:40:34.573Z,19.11
2016-10-05T08:42:10.285Z,19.15
2016-10-05T08:43:13.611Z,19.15
2016-10-05T08:43:39.174Z,19.15
2016-10-05T08:44:04.786Z,19.08
2016-10-05T08:44:30.352Z,19.11
2016-10-05T08:44:55.968Z,19.15
2016-10-05T08:45:21.529Z,19.21